Terminal Aerodrome Forecast
Issued by NWS

Home | Current Version | Previous Version | Text Only | Print | Product List | Glossary On
Versions: 1 2 3 4 5 6 7 8 9 10 11 12 13 14 15 16 17 18 19
000
FTUS43 KGRR 010531 AAA
TAFLAN
TAF AMD
KLAN 010531Z 0106/0206 34007KT P6SM BKN015
      TEMPO 0106/0110 3SM BR SCT004
     FM011800 31010KT P6SM BKN050
     FM020000 31007KT P6SM BKN070=

USA.gov is the U.S. government's official web portal to all federal, state and local government web resources and services.